Página principal
METAR-TAF:

METAR-TAF

Aeroportos :

Aeroporto Internacional de Sunan

Pyongyang, Coreia do Norte

latitude: 39-02N, longitude: 125-47E, altura: 36 m

METAR: em falta

Hora: 16:41 (07:41 UTC)

Previsão

O boletim foi feito há 3 horas e 31 minutos, às 04:10 UTC
Previsão válida de 26 às 06 UTC a 27 às 06 UTC
Vento 12 kt de norte
Visibilidade 10 km ou mais
Nuvens fragmentadasa uma altura de 3000 ft
Tornando-se
de 26 às 10 UTC a 26 às 12 UTC
Vento 8 kt de nor-nordeste
Visibilidade 10 km ou mais
sem nuvens abaixo de 1500 metros e sem cumulonimbus

TAF: ZKPY 260410Z 2606/2706 35006MPS 9999 BKN030 TX11/2606Z TNM01/2622Z BECMG 2610/2612 02004MPS CAVOK

Observações e previsões do tempo de mais de 4000 aeroportos (mensagens METAR e TAF).

As estações disponíveis são os pontos amarelos e vermelhos sobre o mapa.

Mova o rato sobre o mapa para ver o nome da estação.

Depois clique no ponto para visualizar as observações e previsões meteorológicas.

Para alterar o mapa : clique nos botões verdes com uma cruz preta para aumentar o zoom; no botão verde com uma pitada de zoom; ou nas setas verdes para mapas adjacentes.


METAR-TAF: